Time;durP1;ratioP1;P1;durP2;ratioP2;P2;SDS_P1;SDS_P2;PMS_P1;PMS_P2;Temp;Humidity;BMP_temperature;BMP_pressure;BME280_temperature;BME280_humidity;BME280_pressure;Samples;Min_cycle;Max_cycle;Signal;HPM_P1;HPM_P2
2023/01/14 00:01:28;;;;;;;100.90;69.40;;;6.10;99.90;;;;;;4917191;29;20028;-90
2023/01/14 00:03:55;;;;;;;106.45;69.82;;;6.10;99.90;;;;;;4916877;29;20028;-92
2023/01/14 00:06:25;;;;;;;101.57;66.82;;;6.20;99.90;;;;;;4917155;29;20032;-91
2023/01/14 00:08:57;;;;;;;114.10;75.07;;;6.20;99.90;;;;;;4916939;29;20028;-91
2023/01/14 00:14:11;;;;;;;100.00;66.32;;;6.30;99.90;;;;;;4917124;29;20036;-90
2023/01/14 00:16:42;;;;;;;101.28;65.97;;;6.30;99.90;;;;;;4917277;29;20036;-92
2023/01/14 00:19:10;;;;;;;106.18;67.85;;;6.30;99.90;;;;;;4917456;29;20055;-91
2023/01/14 00:21:37;;;;;;;112.03;71.18;;;6.30;99.90;;;;;;4918124;29;20056;-91
2023/01/14 00:24:05;;;;;;;109.60;70.25;;;6.30;99.90;;;;;;4901880;29;20056;-93
2023/01/14 00:26:35;;;;;;;108.10;70.25;;;6.40;99.90;;;;;;4901059;29;20025;-91
2023/01/14 00:29:02;;;;;;;110.57;67.80;;;6.40;99.90;;;;;;4916692;29;20044;-91
2023/01/14 00:31:29;;;;;;;105.35;66.55;;;6.50;99.90;;;;;;4916847;29;20122;-91
2023/01/14 00:33:59;;;;;;;96.95;64.25;;;6.50;99.90;;;;;;4900961;29;20032;-90
2023/01/14 00:36:27;;;;;;;96.18;64.47;;;6.50;99.90;;;;;;4900983;29;20168;-90
2023/01/14 00:38:55;;;;;;;122.68;77.10;;;6.60;99.90;;;;;;4910446;29;20044;-91
2023/01/14 00:41:25;;;;;;;116.63;74.28;;;6.50;99.90;;;;;;4935663;29;20043;-94
2023/01/14 00:43:55;;;;;;;122.22;72.93;;;6.50;99.90;;;;;;4935869;29;20051;-93
2023/01/14 00:46:28;;;;;;;103.68;68.05;;;6.60;99.90;;;;;;4935564;29;20040;-92
2023/01/14 00:49:00;;;;;;;95.82;63.67;;;6.60;99.90;;;;;;4919876;29;20035;-90
2023/01/14 00:51:28;;;;;;;90.07;62.20;;;6.60;99.90;;;;;;4935529;29;20469;-91
2023/01/14 00:53:59;;;;;;;93.72;63.63;;;6.60;99.90;;;;;;4919934;29;20106;-90
2023/01/14 00:56:27;;;;;;;96.25;62.60;;;6.60;99.90;;;;;;4935459;29;20059;-91
2023/01/14 00:58:54;;;;;;;95.38;61.78;;;6.60;99.90;;;;;;4919741;29;20059;-90
2023/01/14 01:01:21;;;;;;;108.68;69.65;;;6.70;99.90;;;;;;4935494;29;20119;-92
2023/01/14 01:03:51;;;;;;;87.72;61.88;;;6.60;99.90;;;;;;4919716;29;20122;-91
2023/01/14 01:06:21;;;;;;;102.68;65.18;;;6.60;99.90;;;;;;4935578;29;20467;-91
2023/01/14 01:08:48;;;;;;;105.93;67.47;;;6.70;99.90;;;;;;4919509;29;20095;-92
2023/01/14 01:11:16;;;;;;;95.22;62.40;;;6.70;99.90;;;;;;4919495;29;20039;-94
2023/01/14 01:13:43;;;;;;;92.95;62.22;;;6.70;99.90;;;;;;4935148;29;20032;-92
2023/01/14 01:16:14;;;;;;;91.00;61.63;;;6.60;99.90;;;;;;4921427;29;20075;-91
2023/01/14 01:18:42;;;;;;;93.57;61.67;;;6.60;99.90;;;;;;4922807;29;20063;-91
2023/01/14 01:21:11;;;;;;;92.43;61.97;;;6.60;99.90;;;;;;4922768;29;20039;-91
2023/01/14 01:23:40;;;;;;;97.55;64.38;;;6.60;99.90;;;;;;4938626;29;20028;-91
2023/01/14 01:26:11;;;;;;;100.05;67.38;;;6.60;99.90;;;;;;4922903;29;20032;-92
2023/01/14 01:28:38;;;;;;;97.25;65.68;;;6.60;99.90;;;;;;4946926;29;20020;-92
2023/01/14 01:31:12;;;;;;;99.90;65.72;;;6.60;99.90;;;;;;4922991;29;20027;-92
2023/01/14 01:33:40;;;;;;;97.05;65.82;;;6.60;99.90;;;;;;4922608;29;20044;-91
2023/01/14 01:36:16;;;;;;;99.03;64.95;;;6.60;99.90;;;;;;4922608;29;20067;-93
2023/01/14 01:38:45;;;;;;;94.80;65.88;;;6.60;99.90;;;;;;4919406;29;20059;-92
2023/01/14 01:41:21;;;;;;;105.55;69.63;;;6.60;99.90;;;;;;4919344;29;20032;-92
2023/01/14 01:44:07;;;;;;;106.10;68.97;;;6.60;99.90;;;;;;4925124;29;20040;-90
2023/01/14 01:46:35;;;;;;;108.10;71.40;;;6.60;99.90;;;;;;4938152;29;20031;-94
2023/01/14 01:49:11;;;;;;;97.88;64.85;;;6.60;99.90;;;;;;4922488;29;20555;-91
2023/01/14 01:52:22;;;;;;;103.65;68.60;;;6.60;99.90;;;;;;4937865;29;20043;-92
2023/01/14 01:54:54;;;;;;;111.97;71.75;;;6.60;99.90;;;;;;4937879;29;20059;-93
2023/01/14 01:57:21;;;;;;;103.28;69.53;;;6.60;99.90;;;;;;4937951;29;20035;-90
2023/01/14 02:00:06;;;;;;;102.43;67.80;;;6.60;99.90;;;;;;4922158;29;20102;-92
2023/01/14 02:02:38;;;;;;;108.55;71.07;;;6.60;99.90;;;;;;4939584;29;20039;-91
2023/01/14 02:05:11;;;;;;;109.00;71.07;;;6.60;99.90;;;;;;4923881;29;20056;-90
2023/01/14 02:07:38;;;;;;;97.72;63.53;;;6.60;99.90;;;;;;4937727;29;20108;-91
2023/01/14 02:10:06;;;;;;;95.55;62.47;;;6.60;99.90;;;;;;4937665;29;20111;-90
2023/01/14 02:13:02;;;;;;;109.60;71.10;;;6.60;99.90;;;;;;4937676;29;20537;-92
2023/01/14 02:15:54;;;;;;;115.90;73.30;;;6.60;99.90;;;;;;4937655;29;20079;-93
2023/01/14 02:18:44;;;;;;;106.70;68.78;;;6.60;99.90;;;;;;4922064;29;20118;-92
2023/01/14 02:21:31;;;;;;;102.35;68.30;;;6.60;99.90;;;;;;4921819;29;20036;-93
2023/01/14 02:24:36;;;;;;;104.72;69.25;;;6.60;99.90;;;;;;4937438;29;20058;-93
2023/01/14 02:27:25;;;;;;;;;;;6.60;99.90;;;;;;4921931;29;20124;-93
2023/01/14 02:30:22;;;;;;;102.63;69.18;;;6.60;99.90;;;;;;4937762;29;19911;-91
2023/01/14 02:33:07;;;;;;;118.03;74.10;;;6.50;99.90;;;;;;4937428;29;20552;-93
2023/01/14 02:35:55;;;;;;;119.65;75.90;;;6.50;99.90;;;;;;4921548;29;20044;-91
2023/01/14 02:38:48;;;;;;;104.82;69.07;;;6.50;99.90;;;;;;4931123;29;20052;-91
2023/01/14 02:44:27;;;;;;;99.32;68.40;;;6.50;99.90;;;;;;4918159;29;20037;-92
2023/01/14 02:47:03;;;;;;;110.03;72.63;;;6.50;99.90;;;;;;4918227;29;20036;-91
2023/01/14 02:49:36;;;;;;;109.25;71.40;;;6.50;99.90;;;;;;4918040;29;20083;-92
2023/01/14 02:52:07;;;;;;;100.05;66.75;;;6.50;99.90;;;;;;4917966;29;20123;-91
2023/01/14 02:54:35;;;;;;;105.07;66.70;;;6.50;99.90;;;;;;4918030;29;20115;-91
2023/01/14 02:57:11;;;;;;;110.53;72.88;;;6.50;99.90;;;;;;4918767;29;20036;-94
2023/01/14 02:59:56;;;;;;;91.85;63.50;;;6.40;99.90;;;;;;4918351;29;20029;-91
2023/01/14 03:02:47;;;;;;;106.15;70.30;;;6.40;99.90;;;;;;4933627;29;20040;-92
2023/01/14 03:05:44;;;;;;;100.55;67.13;;;6.40;99.90;;;;;;4917730;29;20036;-93
2023/01/14 03:08:43;;;;;;;94.70;62.80;;;6.40;99.90;;;;;;4917692;29;20035;-90
2023/01/14 03:11:16;;;;;;;99.72;67.85;;;6.40;99.90;;;;;;4917613;29;20048;-91
2023/01/14 03:13:49;;;;;;;100.07;67.13;;;6.40;99.90;;;;;;4917361;29;20055;-92
2023/01/14 03:16:22;;;;;;;101.85;66.85;;;6.40;99.90;;;;;;4917714;29;20043;-93
2023/01/14 03:19:51;;;;;;;122.30;77.22;;;6.40;99.90;;;;;;4917472;29;20032;-90
2023/01/14 03:22:20;;;;;;;120.38;74.28;;;6.40;99.90;;;;;;4827764;29;20075;-91
2023/01/14 03:24:56;;;;;;;113.32;71.93;;;6.40;99.90;;;;;;4863786;29;20063;-91
2023/01/14 03:27:27;;;;;;;106.93;68.78;;;6.40;99.90;;;;;;4863756;29;20036;-92
2023/01/14 03:30:01;;;;;;;97.03;67.80;;;6.40;99.90;;;;;;4863398;29;20041;-92
2023/01/14 03:32:34;;;;;;;116.68;74.80;;;6.40;99.90;;;;;;4863388;29;20052;-91
2023/01/14 03:35:03;;;;;;;113.00;73.18;;;6.40;99.90;;;;;;4863704;29;20074;-93
2023/01/14 03:37:31;;;;;;;113.40;74.85;;;6.30;99.90;;;;;;4848692;29;20142;-93
2023/01/14 03:40:02;;;;;;;104.82;70.32;;;6.40;99.90;;;;;;4881020;29;20076;-93
2023/01/14 03:42:37;;;;;;;107.07;68.78;;;6.40;99.90;;;;;;4882329;29;20041;-90
2023/01/14 03:45:32;;;;;;;101.03;67.45;;;6.30;99.90;;;;;;4883702;29;20111;-90
2023/01/14 03:47:59;;;;;;;109.50;71.57;;;6.30;99.90;;;;;;4868740;29;20032;-93
2023/01/14 03:50:50;;;;;;;111.07;71.35;;;6.30;99.90;;;;;;4866433;29;20064;-90
2023/01/14 03:54:10;;;;;;;103.15;67.47;;;6.30;99.90;;;;;;4866405;29;20099;-91
2023/01/14 03:57:03;;;;;;;111.82;71.25;;;6.30;99.90;;;;;;4875913;29;20044;-92
2023/01/14 03:59:42;;;;;;;110.38;70.40;;;6.30;99.90;;;;;;4901470;29;20131;-92
2023/01/14 04:02:11;;;;;;;109.25;68.68;;;6.20;99.90;;;;;;4901306;29;20379;-92
2023/01/14 04:04:38;;;;;;;104.72;67.72;;;6.20;99.90;;;;;;4901385;29;20418;-92
2023/01/14 04:07:06;;;;;;;106.53;68.88;;;6.20;99.90;;;;;;4915631;29;20115;-91
2023/01/14 04:09:32;;;;;;;91.05;60.70;;;6.20;99.90;;;;;;4920379;29;20020;-92
2023/01/14 04:11:59;;;;;;;112.13;72.75;;;6.10;99.90;;;;;;4919897;29;20130;-91
2023/01/14 04:17:14;;;;;;;104.80;69.55;;;6.10;99.90;;;;;;4935807;29;20056;-91
2023/01/14 04:19:41;;;;;;;97.80;62.58;;;6.00;99.90;;;;;;4919903;29;20051;-90
2023/01/14 04:22:07;;;;;;;106.22;71.70;;;6.00;99.90;;;;;;4920009;29;20482;-92
2023/01/14 04:24:34;;;;;;;125.65;76.07;;;5.90;99.90;;;;;;4920244;29;20110;-90
2023/01/14 04:27:00;;;;;;;103.22;68.80;;;5.80;99.90;;;;;;4935536;29;20035;-91
2023/01/14 04:29:27;;;;;;;105.25;68.20;;;5.80;99.90;;;;;;4919775;29;20055;-91
2023/01/14 04:31:54;;;;;;;130.55;80.93;;;5.70;99.90;;;;;;4935549;29;20430;-93
2023/01/14 04:34:20;;;;;;;104.43;67.45;;;5.70;99.90;;;;;;4919908;29;20031;-90
2023/01/14 04:36:47;;;;;;;112.80;72.18;;;5.70;99.90;;;;;;4919975;29;20078;-91
2023/01/14 04:39:14;;;;;;;99.72;65.10;;;5.60;99.90;;;;;;4928508;29;20044;-93
2023/01/14 04:44:25;;;;;;;102.47;64.78;;;5.60;99.90;;;;;;4935571;29;20028;-90
2023/01/14 04:46:52;;;;;;;107.53;69.90;;;5.60;99.90;;;;;;4919949;29;20028;-90
2023/01/14 04:49:20;;;;;;;124.43;78.70;;;5.60;99.90;;;;;;4919953;29;20032;-90
2023/01/14 04:51:47;;;;;;;113.60;71.95;;;5.60;99.90;;;;;;4922662;29;20521;-91
2023/01/14 04:54:13;;;;;;;113.00;72.95;;;5.60;99.90;;;;;;4939047;29;20031;-92
2023/01/14 04:56:40;;;;;;;108.82;67.70;;;5.60;99.90;;;;;;4923264;29;20111;-93
2023/01/14 04:59:07;;;;;;;111.57;70.88;;;5.60;99.90;;;;;;4923291;29;20038;-91
2023/01/14 05:01:33;;;;;;;95.18;63.15;;;5.50;99.90;;;;;;4923219;29;20028;-92
2023/01/14 05:04:00;;;;;;;91.88;62.33;;;5.50;99.90;;;;;;4923503;29;20028;-91
2023/01/14 05:06:28;;;;;;;100.60;65.90;;;5.50;99.90;;;;;;4923711;29;20051;-91
2023/01/14 05:08:55;;;;;;;103.63;64.50;;;5.40;99.90;;;;;;4938909;29;20051;-91
2023/01/14 05:11:23;;;;;;;101.82;64.30;;;5.30;99.90;;;;;;4923085;29;20110;-91
2023/01/14 05:13:49;;;;;;;96.25;60.45;;;5.30;99.90;;;;;;4938931;29;20115;-92
2023/01/14 05:16:16;;;;;;;96.82;61.40;;;5.30;99.90;;;;;;4923323;29;20027;-91
2023/01/14 05:18:43;;;;;;;98.07;64.10;;;5.30;99.90;;;;;;4922953;29;20031;-91
2023/01/14 05:21:11;;;;;;;105.93;65.75;;;5.20;99.90;;;;;;4922889;29;20114;-91
2023/01/14 05:23:38;;;;;;;93.97;61.67;;;5.20;99.90;;;;;;4923451;29;20028;-90
2023/01/14 05:26:05;;;;;;;92.80;61.03;;;5.30;99.90;;;;;;4927008;29;20031;-91
2023/01/14 05:28:33;;;;;;;96.63;62.45;;;5.20;99.90;;;;;;4938800;29;20485;-91
2023/01/14 05:31:03;;;;;;;88.03;56.92;;;5.20;99.90;;;;;;4922627;29;20378;-91
2023/01/14 05:33:30;;;;;;;95.45;60.80;;;5.20;99.90;;;;;;4939092;29;20048;-90
2023/01/14 05:35:58;;;;;;;106.30;62.42;;;5.20;99.90;;;;;;4923348;29;20031;-92
2023/01/14 05:38:26;;;;;;;90.68;59.80;;;5.20;99.90;;;;;;4927261;29;20043;-91
2023/01/14 05:40:53;;;;;;;96.38;61.15;;;5.20;99.90;;;;;;4922878;29;20027;-92
2023/01/14 05:46:17;;;;;;;102.18;63.25;;;5.10;99.90;;;;;;4938114;29;20486;-90
2023/01/14 05:48:47;;;;;;;87.13;56.85;;;5.10;99.90;;;;;;4938168;29;20034;-91
2023/01/14 05:51:16;;;;;;;93.18;59.20;;;5.10;99.90;;;;;;4938313;29;20032;-92
2023/01/14 05:53:44;;;;;;;81.88;54.13;;;5.00;99.90;;;;;;4938768;29;20043;-91
2023/01/14 05:56:10;;;;;;;91.68;56.60;;;5.00;99.90;;;;;;4938173;29;20052;-92
2023/01/14 05:58:38;;;;;;;107.15;65.60;;;5.00;99.90;;;;;;4938110;29;20035;-90
2023/01/14 06:06:43;;;;;;;86.28;54.53;;;4.90;99.90;;;;;;4937965;29;20028;-91
2023/01/14 06:09:12;;;;;;;86.80;57.20;;;4.90;99.90;;;;;;4937824;29;20047;-91
2023/01/14 06:12:01;;;;;;;84.25;54.03;;;4.80;99.90;;;;;;4937752;29;20039;-91
2023/01/14 06:14:32;;;;;;;82.20;50.35;;;4.80;99.90;;;;;;4937541;29;20083;-90
2023/01/14 06:17:08;;;;;;;72.43;48.05;;;4.80;99.90;;;;;;4937487;29;20036;-91
2023/01/14 06:19:38;;;;;;;75.53;50.42;;;4.80;99.90;;;;;;4937654;29;20031;-89
2023/01/14 06:22:06;;;;;;;73.45;48.75;;;4.70;99.90;;;;;;4937418;29;20024;-91
2023/01/14 06:24:33;;;;;;;70.18;47.15;;;4.70;99.90;;;;;;4937433;29;20392;-90
2023/01/14 06:27:06;;;;;;;69.57;47.50;;;4.70;99.90;;;;;;4937288;29;20106;-91
2023/01/14 06:29:33;;;;;;;73.18;49.30;;;4.70;99.90;;;;;;4937597;29;20031;-91
2023/01/14 06:32:00;;;;;;;69.57;47.08;;;4.70;99.90;;;;;;4937200;29;20066;-90
2023/01/14 06:34:27;;;;;;;69.85;47.30;;;4.80;99.90;;;;;;4937289;29;20087;-93
2023/01/14 06:36:54;;;;;;;77.28;52.85;;;4.80;99.90;;;;;;4937422;29;20036;-92
2023/01/14 06:39:21;;;;;;;80.68;52.10;;;4.80;99.90;;;;;;4946792;28;20414;-91
2023/01/14 06:41:47;;;;;;;82.35;54.08;;;4.90;99.90;;;;;;4938452;29;20127;-91
2023/01/14 06:44:14;;;;;;;80.78;53.13;;;5.00;99.90;;;;;;4937165;29;20122;-91
2023/01/14 06:46:41;;;;;;;65.85;45.75;;;5.10;99.90;;;;;;4937443;29;20489;-89
2023/01/14 06:49:10;;;;;;;62.65;43.05;;;5.20;99.90;;;;;;4937161;29;20023;-91
2023/01/14 06:51:39;;;;;;;75.50;48.05;;;5.40;99.90;;;;;;4937361;29;20544;-91
2023/01/14 06:54:09;;;;;;;65.53;41.17;;;5.60;99.90;;;;;;4936803;29;20054;-93
2023/01/14 06:56:36;;;;;;;61.67;42.15;;;5.90;99.90;;;;;;4936970;29;20039;-94
2023/01/14 06:59:02;;;;;;;62.45;42.55;;;6.20;99.90;;;;;;4937249;29;20032;-95
2023/01/14 07:01:29;;;;;;;57.97;40.90;;;6.40;99.90;;;;;;4937379;29;20031;-93
2023/01/14 07:04:02;;;;;;;54.85;37.75;;;6.70;99.90;;;;;;4941075;29;20051;-92
2023/01/14 07:06:28;;;;;;;65.65;46.00;;;6.90;99.90;;;;;;4939917;29;20047;-92
2023/01/14 07:08:55;;;;;;;61.42;41.42;;;7.10;99.90;;;;;;4937050;29;20060;-93
2023/01/14 07:11:21;;;;;;;60.15;43.72;;;7.40;99.90;;;;;;4936621;29;20078;-92
2023/01/14 07:13:48;;;;;;;61.85;45.10;;;7.40;99.90;;;;;;4935901;29;20494;-93
2023/01/14 07:16:15;;;;;;;55.33;41.22;;;7.60;99.90;;;;;;4936727;29;20059;-91
2023/01/14 07:18:41;;;;;;;53.90;41.30;;;7.80;99.90;;;;;;4936894;29;20478;-93
2023/01/14 07:21:08;;;;;;;55.03;43.65;;;8.10;99.90;;;;;;4936425;29;20042;-94
2023/01/14 11:16:42;;;;;;;17.65;15.90;;;14.60;99.90;;;;;;6165442;23;20043;31
2023/01/14 11:19:21;;;;;;;17.02;15.32;;;14.50;99.90;;;;;;4935562;29;19923;-91
2023/01/14 11:21:58;;;;;;;17.90;16.08;;;14.40;99.90;;;;;;4939316;29;20035;-92
2023/01/14 11:25:03;;;;;;;18.02;16.08;;;14.50;99.90;;;;;;4940035;29;20515;-91
2023/01/14 11:27:31;;;;;;;17.48;15.85;;;14.50;99.90;;;;;;4923455;29;20040;-92
2023/01/14 11:29:59;;;;;;;18.10;16.38;;;14.70;99.90;;;;;;4925026;29;20024;-92
2023/01/14 11:32:32;;;;;;;18.13;16.33;;;14.80;99.90;;;;;;4923539;29;20062;-94
2023/01/14 11:35:25;;;;;;;19.83;17.98;;;14.70;99.90;;;;;;4923752;29;20027;-92
2023/01/14 11:38:02;;;;;;;17.95;16.45;;;14.80;99.90;;;;;;4901350;29;20091;-93
2023/01/14 11:43:22;;;;;;;18.42;16.77;;;15.00;99.90;;;;;;4873515;29;20040;-92
2023/01/14 11:46:12;;;;;;;18.83;17.13;;;15.20;99.90;;;;;;4886228;29;20086;-92
2023/01/14 11:48:42;;;;;;;19.33;17.70;;;15.30;99.90;;;;;;4908789;29;20541;-91
2023/01/14 11:51:21;;;;;;;19.48;17.90;;;15.40;99.90;;;;;;4917957;29;20084;-92
2023/01/14 11:53:54;;;;;;;19.48;17.92;;;15.40;99.90;;;;;;4904371;29;20040;-93
2023/01/14 11:56:41;;;;;;;19.63;18.00;;;15.40;99.90;;;;;;4901911;29;20040;-92
2023/01/14 11:59:37;;;;;;;18.90;17.50;;;15.10;99.90;;;;;;4884901;29;20032;-94
2023/01/14 12:02:26;;;;;;;18.33;17.02;;;14.90;99.90;;;;;;4891224;29;20041;-91
2023/01/14 12:05:11;;;;;;;18.52;16.92;;;14.70;99.90;;;;;;4897854;29;20028;-91
2023/01/14 12:07:58;;;;;;;17.92;16.45;;;15.00;99.90;;;;;;4898858;29;20540;-92
2023/01/14 12:10:33;;;;;;;17.98;16.67;;;15.00;99.90;;;;;;4898183;29;20033;-92
2023/01/14 12:19:20;;;;;;;17.05;15.45;;;13.90;99.90;;;;;;4919963;29;20051;-90
2023/01/14 12:22:18;;;;;;;16.42;14.90;;;13.70;99.90;;;;;;4902880;29;20473;-91
2023/01/14 12:25:02;;;;;;;14.32;12.80;;;13.60;99.90;;;;;;4904530;29;20031;-92
2023/01/14 12:28:00;;;;;;;14.95;13.52;;;13.70;99.90;;;;;;4904716;29;20027;-92
2023/01/14 12:30:47;;;;;;;13.93;12.82;;;13.70;99.90;;;;;;4904290;29;20086;-89
2023/01/14 12:33:25;;;;;;;13.93;12.93;;;13.70;99.90;;;;;;4904308;29;20044;-90
2023/01/14 12:36:19;;;;;;;14.40;13.30;;;13.70;99.90;;;;;;4904391;29;20038;-91
2023/01/14 12:47:16;;;;;;;15.75;14.35;;;13.40;99.90;;;;;;4920066;29;20038;-89
2023/01/14 12:49:45;;;;;;;14.45;13.15;;;13.20;99.90;;;;;;4904241;29;20152;-90
2023/01/14 12:52:22;;;;;;;14.57;13.55;;;13.10;99.90;;;;;;4903946;29;20090;-90
2023/01/14 12:54:50;;;;;;;14.80;13.68;;;12.90;99.90;;;;;;4904134;29;20504;-89
2023/01/14 12:57:22;;;;;;;14.32;13.30;;;12.70;99.90;;;;;;4904039;29;20032;-88
2023/01/14 13:00:06;;;;;;;14.60;13.40;;;12.70;99.90;;;;;;4903981;29;20508;-88
2023/01/14 13:02:45;;;;;;;15.45;14.00;;;12.50;99.90;;;;;;4904245;29;20483;-88
2023/01/14 13:05:17;;;;;;;14.77;13.60;;;12.50;99.90;;;;;;4904047;29;20031;-89
2023/01/14 13:07:52;;;;;;;16.92;15.35;;;12.40;99.90;;;;;;4903967;29;20031;-89
2023/01/14 13:10:35;;;;;;;15.18;13.95;;;12.40;99.90;;;;;;4919800;29;20039;-90
2023/01/14 13:13:05;;;;;;;16.58;15.18;;;12.40;99.90;;;;;;4906863;29;20039;-91
2023/01/14 13:15:36;;;;;;;18.05;16.35;;;12.30;99.90;;;;;;4907473;29;20031;-91
2023/01/14 13:18:06;;;;;;;16.15;15.00;;;12.40;99.90;;;;;;4915615;29;20051;-90
2023/01/14 13:20:49;;;;;;;15.80;14.55;;;12.40;99.90;;;;;;4923073;29;20119;-89
2023/01/14 13:23:35;;;;;;;72.53;34.40;;;12.50;99.90;;;;;;4922940;29;20031;-89
2023/01/14 13:26:09;;;;;;;63.60;42.35;;;12.50;99.90;;;;;;4923270;29;20031;-90
2023/01/14 13:29:13;;;;;;;24.90;22.30;;;12.60;99.90;;;;;;4923447;29;20062;-89
2023/01/14 13:31:40;;;;;;;17.90;16.40;;;12.60;99.90;;;;;;4924008;29;20024;-90
2023/01/14 13:34:26;;;;;;;22.13;20.23;;;12.50;99.90;;;;;;4922996;29;20122;-91
2023/01/14 13:36:55;;;;;;;19.85;17.98;;;12.40;99.90;;;;;;4922597;29;20397;-92
2023/01/14 13:39:23;;;;;;;16.92;15.50;;;12.40;99.90;;;;;;4922887;29;20031;-92
2023/01/14 13:41:53;;;;;;;12.07;11.15;;;12.30;99.90;;;;;;4922415;29;20504;-91
2023/01/14 13:44:25;;;;;;;15.90;14.63;;;12.20;99.90;;;;;;4923082;29;20031;-92
2023/01/14 13:46:59;;;;;;;15.32;13.93;;;12.10;99.90;;;;;;4938490;29;20028;-89
2023/01/14 13:49:42;;;;;;;19.60;17.77;;;12.20;99.90;;;;;;4922899;29;20492;-91
2023/01/14 13:52:12;;;;;;;23.73;21.13;;;12.30;99.90;;;;;;4922366;29;20031;-91
2023/01/14 13:54:39;;;;;;;14.57;13.27;;;12.30;99.90;;;;;;4922717;29;20027;-93
2023/01/14 13:57:43;;;;;;;17.50;15.55;;;12.30;99.90;;;;;;4922994;29;20056;-92
2023/01/14 14:00:26;;;;;;;15.20;13.85;;;12.10;99.90;;;;;;4922405;29;20111;-90
2023/01/14 14:02:54;;;;;;;13.05;12.05;;;12.20;99.90;;;;;;4923024;29;20039;-92
2023/01/14 14:05:27;;;;;;;14.13;12.85;;;12.30;99.90;;;;;;4923592;29;20038;-93
2023/01/14 14:08:25;;;;;;;13.23;12.18;;;12.30;99.90;;;;;;4924222;29;20130;-91
2023/01/14 14:11:10;;;;;;;16.23;14.73;;;12.30;99.90;;;;;;4922854;29;20063;-89
2023/01/14 14:16:33;;;;;;;14.23;13.23;;;12.50;99.90;;;;;;4938913;29;20027;-90
2023/01/14 14:19:09;;;;;;;14.15;13.05;;;12.40;99.90;;;;;;4922857;29;20095;-91
2023/01/14 14:21:42;;;;;;;14.02;13.02;;;12.30;99.90;;;;;;4922976;29;20031;-91
2023/01/14 14:24:31;;;;;;;13.97;13.00;;;12.10;99.90;;;;;;4912800;29;20028;-92
2023/01/14 14:27:03;;;;;;;12.88;11.93;;;11.90;99.90;;;;;;4903253;29;20327;-90
2023/01/14 14:29:34;;;;;;;11.68;10.88;;;11.90;99.90;;;;;;4903124;29;20058;-89
2023/01/14 14:32:09;;;;;;;11.68;10.88;;;11.80;99.90;;;;;;4903463;29;20033;-90
2023/01/14 14:34:39;;;;;;;10.45;9.55;;;11.60;99.90;;;;;;4903575;29;20032;-89
2023/01/14 14:37:13;;;;;;;10.70;9.80;;;11.50;99.90;;;;;;4903312;29;20059;-89
2023/01/14 14:39:40;;;;;;;11.13;10.23;;;11.40;99.90;;;;;;4919083;29;20149;-89
2023/01/14 14:42:17;;;;;;;9.93;9.23;;;11.30;99.90;;;;;;4902920;29;20044;-91
2023/01/14 14:44:59;;;;;;;10.35;9.48;;;11.30;99.90;;;;;;4902763;29;20115;-90
2023/01/14 14:47:33;;;;;;;9.75;8.90;;;11.30;99.90;;;;;;4902752;29;20055;-89
2023/01/14 14:50:00;;;;;;;9.95;9.25;;;11.30;99.90;;;;;;4903011;29;20067;-90
2023/01/14 14:52:28;;;;;;;9.77;9.07;;;11.30;99.90;;;;;;4919702;29;20040;-91
2023/01/14 14:55:10;;;;;;;9.40;8.60;;;11.30;99.90;;;;;;4903063;29;20119;-90
2023/01/14 14:57:39;;;;;;;8.75;8.18;;;11.30;99.90;;;;;;4902943;29;20036;-90
2023/01/14 15:00:21;;;;;;;9.55;8.35;;;11.20;99.90;;;;;;4902496;29;20111;-92
2023/01/14 15:05:50;;;;;;;8.52;7.72;;;11.10;99.90;;;;;;4917409;29;20047;-91
2023/01/14 15:08:28;;;;;;;8.80;8.07;;;11.10;99.90;;;;;;4902678;29;20508;-92
2023/01/14 15:11:08;;;;;;;7.90;7.30;;;11.10;99.90;;;;;;4903309;29;20115;-90
2023/01/14 15:13:42;;;;;;;7.85;7.25;;;11.00;99.90;;;;;;4903807;29;20095;-91
2023/01/14 15:16:17;;;;;;;10.02;9.07;;;11.00;99.90;;;;;;4932677;28;20032;-91
2023/01/14 15:18:50;;;;;;;18.27;11.82;;;11.00;99.90;;;;;;4907797;29;20147;-91
2023/01/14 15:21:22;;;;;;;15.45;13.93;;;11.00;99.90;;;;;;4901993;29;20039;-92
2023/01/14 15:24:01;;;;;;;12.05;10.93;;;11.00;99.90;;;;;;4920300;23;20150;-91
2023/01/14 15:26:35;;;;;;;18.77;12.77;;;11.00;99.90;;;;;;4976305;28;20441;-91
2023/01/14 15:29:03;;;;;;;17.55;11.07;;;10.90;99.90;;;;;;4960149;28;20026;-90
2023/01/14 15:31:36;;;;;;;16.02;11.15;;;10.90;99.90;;;;;;4960507;28;20026;-91
2023/01/14 15:34:35;;;;;;;11.88;10.73;;;10.90;99.90;;;;;;4958950;28;20126;-93
2023/01/14 15:37:07;;;;;;;12.07;10.65;;;10.80;99.90;;;;;;4958236;29;20519;-93
2023/01/14 15:39:39;;;;;;;10.65;9.57;;;10.80;99.90;;;;;;4973136;28;20039;-92
2023/01/14 15:42:07;;;;;;;13.77;10.52;;;10.70;99.90;;;;;;4972348;28;20384;-91
2023/01/14 15:44:43;;;;;;;13.13;11.80;;;10.70;99.90;;;;;;4972031;28;20027;-91
2023/01/14 15:47:45;;;;;;;20.55;16.35;;;10.70;99.90;;;;;;4964956;28;20027;-92
2023/01/14 15:50:23;;;;;;;20.83;16.00;;;10.70;99.90;;;;;;4960994;28;20092;-93
2023/01/14 15:56:43;;;;;;;22.30;17.05;;;10.60;99.90;;;;;;4975214;28;20046;-93
2023/01/14 15:59:13;;;;;;;21.48;18.98;;;10.60;99.90;;;;;;4963250;28;20031;-91
2023/01/14 16:09:15;;;;;;;31.58;22.52;;;10.60;99.90;;;;;;4974555;28;20058;-92
2023/01/14 16:11:53;;;;;;;29.55;22.77;;;10.60;99.90;;;;;;4974164;28;20551;-91
2023/01/14 16:14:40;;;;;;;31.00;24.63;;;10.60;99.90;;;;;;4974493;28;20443;-93
2023/01/14 16:17:16;;;;;;;22.10;15.35;;;10.50;99.90;;;;;;4955540;28;20028;-92
2023/01/14 16:19:43;;;;;;;18.60;14.38;;;10.40;99.90;;;;;;4923133;29;20031;-92
2023/01/14 16:22:10;;;;;;;27.95;20.67;;;10.40;99.90;;;;;;4940274;29;20082;-91
2023/01/14 16:24:53;;;;;;;32.35;23.00;;;10.40;99.90;;;;;;4932593;29;20076;-91
2023/01/14 16:27:49;;;;;;;27.40;20.55;;;10.40;99.90;;;;;;4916447;29;20040;-91
2023/01/14 16:30:17;;;;;;;22.77;16.75;;;10.30;99.90;;;;;;4847892;29;20049;-92
2023/01/14 16:32:46;;;;;;;30.63;23.65;;;10.30;99.90;;;;;;4848168;29;20069;-94
2023/01/14 16:35:13;;;;;;;30.50;23.83;;;10.20;99.90;;;;;;4849625;29;20089;-93
2023/01/14 16:37:43;;;;;;;25.92;22.42;;;10.20;99.90;;;;;;4847825;29;20097;-91
2023/01/14 16:40:37;;;;;;;31.27;21.42;;;10.10;99.90;;;;;;4848032;29;20545;-93
2023/01/14 16:43:04;;;;;;;28.52;20.73;;;10.10;99.90;;;;;;4864505;29;20037;-92
2023/01/14 16:45:33;;;;;;;27.77;21.42;;;10.10;99.90;;;;;;4849174;29;20101;-92
2023/01/14 16:48:18;;;;;;;29.40;21.05;;;10.10;99.90;;;;;;4851959;29;20085;-93
2023/01/14 16:50:44;;;;;;;24.15;18.20;;;10.10;99.90;;;;;;4852612;29;20029;-92
2023/01/14 16:53:17;;;;;;;26.75;21.30;;;10.10;99.90;;;;;;4851857;29;20044;-91
2023/01/14 16:55:44;;;;;;;21.58;16.60;;;10.10;99.90;;;;;;4856177;29;20037;-93
2023/01/14 16:58:11;;;;;;;20.77;16.65;;;10.20;99.90;;;;;;4988000;23;20256;-90
2023/01/14 17:00:47;;;;;;;19.90;16.35;;;10.20;99.90;;;;;;4994123;28;20022;-94
2023/01/14 17:03:22;;;;;;;33.80;23.75;;;10.20;99.90;;;;;;4984542;28;20030;-92
2023/01/14 17:05:50;;;;;;;23.45;16.58;;;10.20;99.90;;;;;;4982887;28;20076;-93
2023/01/14 17:08:17;;;;;;;39.40;35.80;;;10.20;99.90;;;;;;4982450;28;20506;-93
2023/01/14 17:10:44;;;;;;;23.70;17.65;;;10.20;99.90;;;;;;4981983;28;20057;-91
2023/01/14 17:13:14;;;;;;;18.95;15.48;;;10.20;99.90;;;;;;4984121;28;20037;-91
2023/01/14 17:15:44;;;;;;;20.95;16.30;;;10.20;99.90;;;;;;4981557;28;20038;-91
2023/01/14 17:18:11;;;;;;;18.23;16.27;;;10.20;99.90;;;;;;4983280;28;20034;-91
2023/01/14 17:20:38;;;;;;;29.73;21.40;;;10.10;99.90;;;;;;4981596;28;20026;-91
2023/01/14 17:23:09;;;;;;;21.83;16.02;;;10.10;99.90;;;;;;4961220;28;20049;-91
2023/01/14 17:25:38;;;;;;;19.02;13.98;;;10.10;99.90;;;;;;4945378;28;20044;-91
